createdAt,value
2022-10-05T00:01:38.055Z,100897.50
2022-10-05T00:04:24.496Z,100894.72
2022-10-05T00:07:19.044Z,100905.44
2022-10-05T00:10:01.316Z,100912.25
2022-10-05T00:12:32.644Z,100916.19
2022-10-05T00:15:03.621Z,100922.34
2022-10-05T00:17:36.135Z,100921.88
2022-10-05T00:20:26.516Z,100929.75
2022-10-05T00:23:05.766Z,100917.88
2022-10-05T00:25:35.995Z,100918.44
2022-10-05T00:28:17.067Z,100918.75
2022-10-05T00:30:47.518Z,100922.63
2022-10-05T00:33:20.348Z,100928.38
2022-10-05T00:35:51.011Z,100926.06
2022-10-05T00:38:21.722Z,100927.91
2022-10-05T00:41:23.673Z,100926.44
2022-10-05T00:44:40.195Z,100925.41
2022-10-05T00:47:32.763Z,100931.13
2022-10-05T00:50:33.308Z,100931.63
2022-10-05T00:53:12.459Z,100922.63
2022-10-05T00:55:56.656Z,100922.44
2022-10-05T00:58:29.656Z,100914.56
2022-10-05T01:01:49.993Z,100902.25
2022-10-05T01:04:30.755Z,100903.13
2022-10-05T01:07:38.123Z,100884.16
2022-10-05T01:10:43.749Z,100905.63
2022-10-05T01:13:32.070Z,100910.66
2022-10-05T01:16:14.723Z,100906.47
2022-10-05T01:19:32.697Z,100902.19
2022-10-05T01:22:13.518Z,100905.44
2022-10-05T01:25:04.782Z,100908.97
2022-10-05T01:28:18.852Z,100901.06
2022-10-05T01:30:51.959Z,100895.66
2022-10-05T01:33:35.806Z,100908.34
2022-10-05T01:36:35.983Z,100907.97
2022-10-05T01:39:13.044Z,100902.81
2022-10-05T01:41:50.115Z,100907.75
2022-10-05T01:44:28.087Z,100911.00
2022-10-05T01:47:27.667Z,100923.75
2022-10-05T01:50:09.208Z,100914.09
2022-10-05T01:52:49.010Z,100912.06
2022-10-05T01:55:22.508Z,100912.13
2022-10-05T01:58:21.334Z,100915.56
2022-10-05T02:01:01.567Z,100928.84
2022-10-05T02:03:45.826Z,100929.56
2022-10-05T02:06:22.581Z,100936.41
2022-10-05T02:09:03.347Z,100926.91
2022-10-05T02:11:35.314Z,100932.56
2022-10-05T02:14:11.022Z,100923.16
2022-10-05T02:16:45.300Z,100920.66
2022-10-05T02:19:27.361Z,100913.63
2022-10-05T02:22:40.258Z,100905.88
2022-10-05T02:25:16.796Z,100921.16
2022-10-05T02:28:03.856Z,100922.69
2022-10-05T02:30:39.655Z,100924.84
2022-10-05T02:33:36.194Z,100923.97
2022-10-05T02:36:17.116Z,100925.25
2022-10-05T02:39:11.792Z,100915.38
2022-10-05T02:41:48.614Z,100915.66
2022-10-05T02:44:28.983Z,100909.66
2022-10-05T02:47:10.659Z,100901.28
2022-10-05T02:49:49.113Z,100906.84
2022-10-05T02:52:45.338Z,100893.22
2022-10-05T02:55:24.352Z,100897.38
2022-10-05T02:58:20.344Z,100901.28
2022-10-05T03:00:57.518Z,100887.28
2022-10-05T03:03:40.794Z,100879.34
2022-10-05T03:06:33.209Z,100888.47
2022-10-05T03:09:06.697Z,100882.91
2022-10-05T03:12:26.101Z,100877.31
2022-10-05T03:15:23.915Z,100879.03
2022-10-05T03:18:31.261Z,100886.19
2022-10-05T03:21:19.868Z,100890.97
2022-10-05T03:24:11.707Z,100882.16
2022-10-05T03:27:07.837Z,100886.34
2022-10-05T03:29:44.514Z,100880.59
2022-10-05T03:32:43.514Z,100887.16
2022-10-05T03:35:22.777Z,100877.44
2022-10-05T03:38:07.956Z,100865.66
2022-10-05T03:40:46.467Z,100863.06
2022-10-05T03:43:51.459Z,100866.03
2022-10-05T03:46:30.595Z,100865.53
2022-10-05T03:49:10.211Z,100874.66
2022-10-05T03:52:03.516Z,100868.69
2022-10-05T03:55:06.470Z,100859.16
2022-10-05T03:57:40.936Z,100849.88
2022-10-05T04:00:23.464Z,100848.91
2022-10-05T04:03:11.498Z,100847.25
2022-10-05T04:05:51.189Z,100828.28
2022-10-05T04:08:48.039Z,100858.25
2022-10-05T04:11:31.091Z,100852.44
2022-10-05T04:14:17.331Z,100832.63
2022-10-05T04:16:51.946Z,100836.75
2022-10-05T04:19:39.492Z,100849.03
2022-10-05T04:22:36.311Z,100834.16
2022-10-05T04:25:18.358Z,100831.50
2022-10-05T04:27:56.604Z,100822.59
2022-10-05T04:30:27.381Z,100824.97
2022-10-05T04:33:00.790Z,100818.72
2022-10-05T04:36:14.408Z,100833.72
2022-10-05T04:38:59.601Z,100813.03
2022-10-05T04:41:46.247Z,100830.88
2022-10-05T04:44:41.151Z,100825.78
2022-10-05T04:47:29.769Z,100823.63
2022-10-05T04:50:24.034Z,100827.66
2022-10-05T04:53:25.890Z,100817.84
2022-10-05T04:56:21.377Z,100822.16
2022-10-05T04:59:08.986Z,100824.41
2022-10-05T05:01:59.991Z,100815.38
2022-10-05T05:04:52.171Z,100814.41
2022-10-05T05:07:44.460Z,100799.13
2022-10-05T05:10:42.049Z,100807.34
2022-10-05T05:13:27.142Z,100793.66
2022-10-05T05:16:22.595Z,100794.97
2022-10-05T05:19:29.823Z,100794.09
2022-10-05T05:22:05.674Z,100789.38
2022-10-05T05:25:13.819Z,100782.09
2022-10-05T05:28:02.615Z,100779.53
2022-10-05T05:31:07.140Z,100779.72
2022-10-05T05:33:56.758Z,100783.44
2022-10-05T05:37:00.086Z,100777.81
2022-10-05T05:40:01.794Z,100771.66
2022-10-05T05:42:36.495Z,100780.56
2022-10-05T05:45:39.712Z,100775.19
2022-10-05T05:48:45.024Z,100769.59
2022-10-05T05:51:40.794Z,100766.38
2022-10-05T05:54:43.219Z,100761.28
2022-10-05T05:57:45.537Z,100758.44
2022-10-05T06:00:44.203Z,100764.75
2022-10-05T06:03:19.387Z,100754.69
2022-10-05T06:06:13.164Z,100748.41
2022-10-05T06:08:59.539Z,100749.59
2022-10-05T06:11:46.971Z,100755.50
2022-10-05T06:14:28.060Z,100756.84
2022-10-05T06:17:20.076Z,100762.50
2022-10-05T06:19:55.925Z,100764.91
2022-10-05T06:22:30.866Z,100765.47
2022-10-05T06:25:09.894Z,100758.97
2022-10-05T06:28:11.810Z,100753.72
2022-10-05T06:31:30.744Z,100762.47
2022-10-05T06:34:18.300Z,100763.19
2022-10-05T06:36:56.727Z,100762.06
2022-10-05T06:39:52.351Z,100759.72
2022-10-05T06:42:46.094Z,100766.97
2022-10-05T06:45:49.911Z,100757.44
2022-10-05T06:49:12.147Z,100775.59
2022-10-05T06:52:06.133Z,100770.84
2022-10-05T06:55:17.457Z,100773.09
2022-10-05T06:58:27.560Z,100766.38
2022-10-05T07:01:12.372Z,100765.19
2022-10-05T07:04:09.419Z,100765.75
2022-10-05T07:07:13.494Z,100773.06
2022-10-05T07:10:16.339Z,100776.78
2022-10-05T07:13:07.990Z,100772.34
2022-10-05T07:15:43.502Z,100777.84
2022-10-05T07:18:36.123Z,100781.81
2022-10-05T07:21:36.890Z,100777.66
2022-10-05T07:24:07.353Z,100783.28
2022-10-05T07:26:52.300Z,100774.56
2022-10-05T07:29:36.903Z,100783.97
2022-10-05T07:32:36.943Z,100787.97
2022-10-05T07:35:10.730Z,100778.16
2022-10-05T07:37:56.058Z,100772.91
2022-10-05T07:40:41.495Z,100766.69
2022-10-05T07:44:00.538Z,100746.16
2022-10-05T07:46:53.215Z,100774.97
2022-10-05T07:49:43.467Z,100764.16
2022-10-05T07:52:21.192Z,100777.00
2022-10-05T07:55:14.103Z,100782.38
2022-10-05T07:57:51.853Z,100783.88
2022-10-05T08:00:25.024Z,100788.63
2022-10-05T08:03:08.583Z,100785.28
2022-10-05T08:05:43.863Z,100789.16
2022-10-05T08:08:31.982Z,100794.25
2022-10-05T08:11:19.080Z,100793.13
2022-10-05T08:13:49.389Z,100798.72
2022-10-05T08:16:20.738Z,100792.75
2022-10-05T08:19:02.110Z,100785.09
2022-10-05T08:22:04.499Z,100788.84
2022-10-05T08:25:01.434Z,100795.81
2022-10-05T08:27:48.167Z,100800.69
2022-10-05T08:30:19.217Z,100804.06
2022-10-05T08:32:58.914Z,100820.44
2022-10-05T08:35:36.553Z,100818.63
2022-10-05T08:38:23.618Z,100827.91
2022-10-05T08:41:34.274Z,100815.84
2022-10-05T08:44:34.559Z,100835.22
2022-10-05T08:47:31.603Z,100843.47
2022-10-05T08:50:13.259Z,100838.56
2022-10-05T08:53:14.645Z,100840.50
2022-10-05T08:55:54.058Z,100845.28
2022-10-05T08:59:17.792Z,100841.06
2022-10-05T09:01:56.548Z,100841.22
2022-10-05T09:05:19.848Z,100839.50
2022-10-05T09:08:32.166Z,100846.09
2022-10-05T09:11:14.140Z,100846.88
2022-10-05T09:14:05.420Z,100859.44
2022-10-05T09:17:12.377Z,100858.56
2022-10-05T09:19:54.081Z,100861.28
2022-10-05T09:22:39.537Z,100860.94
2022-10-05T09:25:40.025Z,100861.84
2022-10-05T09:28:26.134Z,100864.25
2022-10-05T09:31:17.835Z,100862.56
2022-10-05T09:34:04.816Z,100867.50
2022-10-05T09:36:50.797Z,100868.56
2022-10-05T09:39:36.110Z,100875.22
2022-10-05T09:42:34.138Z,100872.66
2022-10-05T09:45:29.987Z,100885.88
2022-10-05T09:48:15.184Z,100877.34
2022-10-05T09:51:08.425Z,100881.47
2022-10-05T09:54:11.942Z,100870.88
2022-10-05T09:57:21.599Z,100891.19
2022-10-05T10:00:10.662Z,100894.22
2022-10-05T10:03:15.443Z,100896.81
2022-10-05T10:06:33.984Z,100904.44
2022-10-05T10:09:18.752Z,100913.03
2022-10-05T10:12:01.898Z,100912.66
2022-10-05T10:14:53.736Z,100889.72
2022-10-05T10:17:51.763Z,100916.88
2022-10-05T10:20:36.890Z,100916.94
2022-10-05T10:23:24.510Z,100926.19
2022-10-05T10:26:21.943Z,100920.94
2022-10-05T10:29:01.447Z,100935.50
2022-10-05T10:32:10.864Z,100934.16
2022-10-05T10:34:41.478Z,100935.06
2022-10-05T10:37:42.270Z,100940.22
2022-10-05T10:40:59.715Z,100949.53
2022-10-05T10:43:44.879Z,100958.56
2022-10-05T10:46:29.447Z,100957.13
2022-10-05T10:49:17.938Z,100959.38
2022-10-05T10:52:26.252Z,100967.78
2022-10-05T10:55:07.589Z,100974.94
2022-10-05T10:58:06.815Z,100969.47
2022-10-05T11:00:56.494Z,100980.03
2022-10-05T11:03:53.730Z,100970.22
2022-10-05T11:06:51.467Z,100981.25
2022-10-05T11:09:37.066Z,100978.75
2022-10-05T11:12:34.549Z,100985.41
2022-10-05T11:15:22.672Z,100983.78
2022-10-05T11:17:59.259Z,100996.22
2022-10-05T11:20:35.357Z,100993.22
2022-10-05T11:23:38.937Z,100990.56
2022-10-05T11:26:41.443Z,100993.06
2022-10-05T11:29:30.240Z,100990.28
2022-10-05T11:32:35.318Z,100995.63
2022-10-05T11:35:26.429Z,100992.84
2022-10-05T11:38:08.210Z,100985.78
2022-10-05T11:40:54.008Z,100996.44
2022-10-05T11:44:06.118Z,100986.09
2022-10-05T11:46:55.339Z,100993.22
2022-10-05T11:49:46.511Z,101009.06
2022-10-05T11:52:41.874Z,101003.25
2022-10-05T11:55:34.746Z,101002.25
2022-10-05T11:58:13.324Z,101007.06
2022-10-05T12:00:55.675Z,100997.72
2022-10-05T12:03:44.351Z,101004.06
2022-10-05T12:06:41.805Z,100991.72
2022-10-05T12:09:32.742Z,101007.44
2022-10-05T12:12:28.026Z,101005.00
2022-10-05T12:15:04.786Z,101008.22
2022-10-05T12:17:40.146Z,101009.50
2022-10-05T12:20:22.220Z,101000.19
2022-10-05T12:23:01.081Z,100998.59
2022-10-05T12:25:36.667Z,100992.84
2022-10-05T12:28:22.330Z,100998.34
2022-10-05T12:31:11.107Z,100999.97
2022-10-05T12:33:47.991Z,101000.78
2022-10-05T12:37:03.038Z,100996.94
2022-10-05T12:39:52.935Z,100989.78
2022-10-05T12:42:32.990Z,100992.44
2022-10-05T12:45:16.440Z,100987.75
2022-10-05T12:47:53.891Z,100993.75
2022-10-05T12:50:37.840Z,100988.44
2022-10-05T12:53:20.064Z,100981.78
2022-10-05T12:56:12.668Z,100980.78
2022-10-05T12:58:49.366Z,100976.69
2022-10-05T13:01:24.868Z,100980.09
2022-10-05T13:04:12.450Z,100978.22
2022-10-05T13:07:03.885Z,100973.22
2022-10-05T13:09:55.616Z,100970.91
2022-10-05T13:12:37.757Z,100967.50
2022-10-05T13:15:32.535Z,100965.56
2022-10-05T13:18:25.790Z,100970.94
2022-10-05T13:21:03.883Z,100967.31
2022-10-05T13:24:00.347Z,100953.06
2022-10-05T13:26:45.720Z,100944.22
2022-10-05T13:29:34.285Z,100937.66
2022-10-05T13:32:19.880Z,100939.66
2022-10-05T13:35:29.431Z,100927.00
2022-10-05T13:38:08.430Z,100922.66
2022-10-05T13:41:03.557Z,100921.06
2022-10-05T13:43:54.226Z,100913.53
2022-10-05T13:46:47.995Z,100915.75
2022-10-05T13:49:40.377Z,100915.84
2022-10-05T13:52:10.347Z,100922.81
2022-10-05T13:55:14.258Z,100912.97
2022-10-05T13:58:16.646Z,100906.66
2022-10-05T14:00:56.307Z,100906.16
2022-10-05T14:03:36.117Z,100916.19
2022-10-05T14:06:27.547Z,100907.34
2022-10-05T14:09:01.147Z,100903.72
2022-10-05T14:11:36.825Z,100904.81
2022-10-05T14:14:17.702Z,100908.59
2022-10-05T14:16:55.037Z,100890.81
2022-10-05T14:19:58.843Z,100885.88
2022-10-05T14:22:30.567Z,100878.75
2022-10-05T14:25:09.935Z,100887.84
2022-10-05T14:27:55.072Z,100874.41
2022-10-05T14:30:28.241Z,100864.22
2022-10-05T14:33:07.357Z,100860.59
2022-10-05T14:35:51.680Z,100852.66
2022-10-05T14:38:27.511Z,100861.38
2022-10-05T14:41:18.183Z,100848.81
2022-10-05T14:43:54.998Z,100838.94
2022-10-05T14:46:29.573Z,100828.22
2022-10-05T14:49:26.852Z,100817.19
2022-10-05T14:51:58.119Z,100803.72
2022-10-05T14:54:43.213Z,100801.06
2022-10-05T14:57:26.488Z,100805.63
2022-10-05T15:00:17.899Z,100781.97
2022-10-05T15:03:33.420Z,100769.34
2022-10-05T15:06:04.887Z,100753.28
2022-10-05T15:08:38.156Z,100741.72
2022-10-05T15:11:12.907Z,100739.47
2022-10-05T15:13:49.759Z,100726.53
2022-10-05T15:16:22.223Z,100730.78
2022-10-05T15:19:22.891Z,100725.81
2022-10-05T15:22:09.561Z,100727.34
2022-10-05T15:24:51.515Z,100720.03
2022-10-05T15:27:34.878Z,100737.28
2022-10-05T15:30:15.317Z,100735.47
2022-10-05T15:33:07.304Z,100714.03
2022-10-05T15:36:01.694Z,100715.00
2022-10-05T15:38:54.190Z,100700.22
2022-10-05T15:41:46.684Z,100696.53
2022-10-05T15:44:56.770Z,100704.91
2022-10-05T15:47:48.572Z,100706.81
2022-10-05T15:50:44.806Z,100692.66
2022-10-05T15:53:47.365Z,100687.91
2022-10-05T15:56:42.671Z,100688.28
2022-10-05T15:59:27.508Z,100684.56
2022-10-05T16:02:04.916Z,100673.25
2022-10-05T16:04:42.926Z,100663.59
2022-10-05T16:07:43.851Z,100660.97
2022-10-05T16:10:22.743Z,100646.44
2022-10-05T16:13:12.969Z,100621.44
2022-10-05T16:15:47.575Z,100638.59
2022-10-05T16:18:33.324Z,100644.84
2022-10-05T16:21:19.307Z,100642.22
2022-10-05T16:24:01.362Z,100633.44
2022-10-05T16:26:52.597Z,100633.56
2022-10-05T16:29:36.043Z,100631.03
2022-10-05T16:32:20.649Z,100627.03
2022-10-05T16:35:11.944Z,100627.81
2022-10-05T16:38:03.698Z,100619.31
2022-10-05T16:40:47.283Z,100627.41
2022-10-05T16:43:38.987Z,100602.25
2022-10-05T16:46:16.871Z,100613.56
2022-10-05T16:48:58.548Z,100615.03
2022-10-05T16:51:41.088Z,100604.25
2022-10-05T16:54:21.263Z,100602.09
2022-10-05T16:57:36.274Z,100589.31
2022-10-05T17:00:16.357Z,100576.81
2022-10-05T17:03:05.058Z,100578.06
2022-10-05T17:05:57.038Z,100575.31
2022-10-05T17:08:40.071Z,100554.41
2022-10-05T17:11:23.867Z,100552.56
2022-10-05T17:14:09.467Z,100546.44
2022-10-05T17:16:58.397Z,100524.44
2022-10-05T17:20:09.366Z,100520.44
2022-10-05T17:22:53.499Z,100513.00
2022-10-05T17:25:37.316Z,100508.38
2022-10-05T17:28:26.196Z,100512.16
2022-10-05T17:31:18.533Z,100514.50
2022-10-05T17:34:27.442Z,100505.69
2022-10-05T17:37:19.145Z,100493.50
2022-10-05T17:39:55.626Z,100493.91
2022-10-05T17:42:47.787Z,100491.81
2022-10-05T17:45:20.786Z,100467.81
2022-10-05T17:48:10.574Z,100483.97
2022-10-05T17:51:01.234Z,100482.88
2022-10-05T17:54:05.343Z,100489.00
2022-10-05T17:56:58.133Z,100479.25
2022-10-05T17:59:57.473Z,100485.00
2022-10-05T18:02:38.503Z,100475.19
2022-10-05T18:05:30.502Z,100489.78
2022-10-05T18:08:37.919Z,100478.47
2022-10-05T18:11:18.575Z,100480.28
2022-10-05T18:13:51.336Z,100470.28
2022-10-05T18:17:00.474Z,100475.06
2022-10-05T18:19:34.473Z,100467.22
2022-10-05T18:22:17.084Z,100466.66
2022-10-05T18:25:14.516Z,100467.94
2022-10-05T18:27:52.105Z,100464.34
2022-10-05T18:30:27.968Z,100458.25
2022-10-05T18:33:19.422Z,100467.34
2022-10-05T18:36:07.959Z,100455.56
2022-10-05T18:39:01.708Z,100465.72
2022-10-05T18:41:34.941Z,100456.28
2022-10-05T18:44:21.355Z,100442.28
2022-10-05T18:47:24.162Z,100444.44
2022-10-05T18:50:03.624Z,100442.78
2022-10-05T18:53:24.460Z,100439.78
2022-10-05T18:56:22.120Z,100432.94
2022-10-05T18:59:37.930Z,100435.84
2022-10-05T19:02:14.906Z,100438.56
2022-10-05T19:04:49.203Z,100435.44
2022-10-05T19:07:39.439Z,100440.78
2022-10-05T19:10:29.871Z,100422.50
2022-10-05T19:13:38.835Z,100423.91
2022-10-05T19:16:38.670Z,100418.09
2022-10-05T19:19:30.897Z,100415.47
2022-10-05T19:22:18.659Z,100420.81
2022-10-05T19:24:51.880Z,100425.41
2022-10-05T19:27:51.835Z,100417.06
2022-10-05T19:30:56.729Z,100418.25
2022-10-05T19:33:48.465Z,100425.00
2022-10-05T19:36:38.912Z,100426.28
2022-10-05T19:39:29.724Z,100422.13
2022-10-05T19:42:08.465Z,100415.19
2022-10-05T19:44:49.307Z,100418.78
2022-10-05T19:47:52.807Z,100414.13
2022-10-05T19:50:34.293Z,100406.72
2022-10-05T19:53:15.077Z,100398.31
2022-10-05T19:55:48.347Z,100398.53
2022-10-05T19:58:41.288Z,100398.59
2022-10-05T20:01:13.960Z,100399.00
2022-10-05T20:03:50.143Z,100390.50
2022-10-05T20:06:22.887Z,100389.25
2022-10-05T20:08:59.143Z,100397.28
2022-10-05T20:11:30.624Z,100389.19
2022-10-05T20:14:04.021Z,100393.38
2022-10-05T20:16:53.998Z,100380.25
2022-10-05T20:19:56.478Z,100383.16
2022-10-05T20:22:49.694Z,100392.97
2022-10-05T20:25:20.051Z,100394.25
2022-10-05T20:27:52.952Z,100369.38
2022-10-05T20:30:35.286Z,100410.94
2022-10-05T20:33:12.715Z,100406.06
2022-10-05T20:35:43.239Z,100406.44
2022-10-05T20:38:13.890Z,100393.72
2022-10-05T20:40:44.091Z,100395.91
2022-10-05T20:43:15.551Z,100396.06
2022-10-05T20:45:45.557Z,100403.00
2022-10-05T20:48:17.745Z,100411.88
2022-10-05T20:50:48.588Z,100415.69
2022-10-05T20:53:18.915Z,100411.50
2022-10-05T20:55:49.398Z,100420.75
2022-10-05T20:58:19.590Z,100424.75
2022-10-05T21:01:11.570Z,100412.47
2022-10-05T21:03:43.839Z,100413.75
2022-10-05T21:06:14.458Z,100422.69
2022-10-05T21:08:45.239Z,100432.06
2022-10-05T21:11:16.103Z,100438.63
2022-10-05T21:13:46.950Z,100432.38
2022-10-05T21:16:21.385Z,100439.50
2022-10-05T21:18:51.497Z,100434.50
2022-10-05T21:21:22.088Z,100440.28
2022-10-05T21:23:52.388Z,100431.75
2022-10-05T21:26:22.977Z,100436.13
2022-10-05T21:28:52.506Z,100427.00
2022-10-05T21:31:22.378Z,100435.34
2022-10-05T21:33:52.933Z,100441.19
2022-10-05T21:36:24.688Z,100444.50
2022-10-05T21:38:56.462Z,100437.88
2022-10-05T21:41:26.540Z,100447.72
2022-10-05T21:43:57.695Z,100441.25
2022-10-05T21:46:28.047Z,100445.44
2022-10-05T21:48:58.550Z,100443.97
2022-10-05T21:51:28.757Z,100453.81
2022-10-05T21:54:20.284Z,100461.72
2022-10-05T21:56:56.239Z,100448.88
2022-10-05T21:59:30.017Z,100467.13
2022-10-05T22:02:00.456Z,100470.13
2022-10-05T22:04:30.063Z,100476.78
2022-10-05T22:07:00.465Z,100485.47
2022-10-05T22:09:30.054Z,100484.50
2022-10-05T22:11:59.984Z,100482.81
2022-10-05T22:14:30.506Z,100480.47
2022-10-05T22:17:00.101Z,100482.09
2022-10-05T22:19:30.545Z,100481.22
2022-10-05T22:22:00.050Z,100487.25
2022-10-05T22:24:29.775Z,100491.06
2022-10-05T22:27:00.305Z,100484.78
2022-10-05T22:29:30.557Z,100492.78
2022-10-05T22:32:01.503Z,100502.91
2022-10-05T22:34:32.515Z,100498.78
2022-10-05T22:37:05.956Z,100480.97
2022-10-05T22:39:35.946Z,100508.09
2022-10-05T22:42:06.992Z,100502.16
2022-10-05T22:44:37.387Z,100513.16
2022-10-05T22:47:07.986Z,100510.75
2022-10-05T22:49:38.077Z,100510.59
2022-10-05T22:52:11.347Z,100507.56
2022-10-05T22:54:41.378Z,100496.00
2022-10-05T22:57:11.983Z,100504.25
2022-10-05T22:59:41.602Z,100510.38
2022-10-05T23:02:11.842Z,100502.47
2022-10-05T23:04:42.540Z,100501.13
2022-10-05T23:07:12.657Z,100499.44
2022-10-05T23:09:42.567Z,100504.41
2022-10-05T23:12:14.767Z,100500.56
2022-10-05T23:14:44.985Z,100509.16
2022-10-05T23:17:15.570Z,100518.06
2022-10-05T23:19:45.253Z,100516.28
2022-10-05T23:22:15.135Z,100526.69
2022-10-05T23:24:45.799Z,100522.72
2022-10-05T23:27:16.117Z,100529.22
2022-10-05T23:29:46.716Z,100518.78
2022-10-05T23:32:16.672Z,100522.69
2022-10-05T23:34:47.245Z,100525.50
2022-10-05T23:37:18.857Z,100519.22
2022-10-05T23:39:52.010Z,100535.41
2022-10-05T23:42:22.361Z,100544.28
2022-10-05T23:44:52.838Z,100550.63
2022-10-05T23:47:23.000Z,100537.63
2022-10-05T23:49:53.568Z,100543.03
2022-10-05T23:52:23.746Z,100536.69
2022-10-05T23:54:53.719Z,100546.19
2022-10-05T23:57:24.502Z,100555.59
2022-10-05T23:59:54.653Z,100552.47
